createdAt,value
2023-05-14T00:00:03.262Z,1003.3
2023-05-14T00:01:04.437Z,1003.3
2023-05-14T00:02:05.625Z,1003.3
2023-05-14T00:03:07.279Z,1003.3
2023-05-14T00:04:08.929Z,1003.3
2023-05-14T00:05:10.876Z,1003.3
2023-05-14T00:06:12.301Z,1003.3
2023-05-14T00:07:19.972Z,1003.3
2023-05-14T00:08:21.413Z,1003.3
2023-05-14T00:09:28.478Z,1003.3
2023-05-14T00:10:30.337Z,1003.3
2023-05-14T00:11:40.189Z,1003.3
2023-05-14T00:12:41.711Z,1003.3
2023-05-14T00:13:42.991Z,1003.3
2023-05-14T00:14:47.342Z,1003.2
2023-05-14T00:15:49.113Z,1003.2
2023-05-14T00:16:53.298Z,1003.2
2023-05-14T00:17:54.969Z,1003.2
2023-05-14T00:18:56.497Z,1003.3
2023-05-14T00:20:00.864Z,1003.3
2023-05-14T00:21:06.918Z,1003.3
2023-05-14T00:22:11.503Z,1003.3
2023-05-14T00:23:23.020Z,1003.3
2023-05-14T00:24:24.450Z,1003.3
2023-05-14T00:25:26.072Z,1003.3
2023-05-14T00:26:29.801Z,1003.3
2023-05-14T00:27:31.492Z,1003.3
2023-05-14T00:28:33.437Z,1003.3
2023-05-14T00:29:37.888Z,1003.3
2023-05-14T00:30:39.417Z,1003.3
2023-05-14T00:31:41.059Z,1003.3
2023-05-14T00:32:43.176Z,1003.3
2023-05-14T00:33:47.500Z,1003.3
2023-05-14T00:34:51.918Z,1003.3
2023-05-14T00:35:56.089Z,1003.3
2023-05-14T00:36:57.597Z,1003.3
2023-05-14T00:37:59.136Z,1003.3
2023-05-14T00:39:05.902Z,1003.3
2023-05-14T00:40:07.375Z,1003.3
2023-05-14T00:41:11.891Z,1003.3
2023-05-14T00:42:13.664Z,1003.3
2023-05-14T00:43:15.060Z,1003.3
2023-05-14T00:44:16.372Z,1003.3
2023-05-14T00:45:18.000Z,1003.3
2023-05-14T00:46:22.417Z,1003.3
2023-05-14T00:47:24.034Z,1003.3
2023-05-14T00:48:28.133Z,1003.3
2023-05-14T00:49:32.132Z,1003.3
2023-05-14T00:50:36.790Z,1003.3
2023-05-14T00:51:38.059Z,1003.3
2023-05-14T00:52:42.014Z,1003.2
2023-05-14T00:53:43.597Z,1003.2
2023-05-14T00:54:45.082Z,1003.2
2023-05-14T00:55:46.739Z,1003.2
2023-05-14T00:56:48.091Z,1003.2
2023-05-14T00:57:50.081Z,1003.2
2023-05-14T00:58:51.737Z,1003.2
2023-05-14T00:59:53.446Z,1003.2
2023-05-14T01:00:54.969Z,1003.2
2023-05-14T01:01:56.354Z,1003.2
2023-05-14T01:02:58.136Z,1003.2
2023-05-14T01:04:02.916Z,1003.2
2023-05-14T01:05:07.392Z,1003.1
2023-05-14T01:06:09.273Z,1003.1
2023-05-14T01:07:10.700Z,1003.1
2023-05-14T01:08:12.521Z,1003.1
2023-05-14T01:09:14.306Z,1003.1
2023-05-14T01:10:16.009Z,1003.1
2023-05-14T01:11:17.498Z,1003.1
2023-05-14T01:12:19.517Z,1003.1
2023-05-14T01:13:21.174Z,1003.1
2023-05-14T01:14:22.631Z,1003.1
2023-05-14T01:15:24.121Z,1003.1
2023-05-14T01:16:25.819Z,1003.1
2023-05-14T01:17:27.390Z,1003.1
2023-05-14T01:18:28.685Z,1003.1
2023-05-14T01:19:29.866Z,1003.1
2023-05-14T01:20:31.034Z,1003.1
2023-05-14T01:21:32.200Z,1003.1
2023-05-14T01:22:33.369Z,1003.1
2023-05-14T01:23:34.557Z,1003.1
2023-05-14T01:24:35.713Z,1003.1
2023-05-14T01:25:36.905Z,1003.1
2023-05-14T01:26:38.071Z,1003.1
2023-05-14T01:27:39.236Z,1003.1
2023-05-14T01:28:40.412Z,1003.1
2023-05-14T01:29:41.726Z,1003.1
2023-05-14T01:30:42.858Z,1003
2023-05-14T01:31:44.271Z,1003
2023-05-14T01:32:45.554Z,1003
2023-05-14T01:33:46.716Z,1003.1
2023-05-14T01:34:47.947Z,1003
2023-05-14T01:35:49.110Z,1003
2023-05-14T01:36:50.278Z,1003
2023-05-14T01:37:51.567Z,1003
2023-05-14T01:38:52.733Z,1003
2023-05-14T01:39:53.930Z,1003
2023-05-14T01:40:55.102Z,1003
2023-05-14T01:41:56.259Z,1003
2023-05-14T01:42:57.492Z,1003
2023-05-14T01:43:58.798Z,1003
2023-05-14T01:44:59.919Z,1003
2023-05-14T01:46:01.156Z,1003
2023-05-14T01:47:02.310Z,1003
2023-05-14T01:48:03.619Z,1003
2023-05-14T01:49:04.825Z,1003
2023-05-14T01:50:06.129Z,1003
2023-05-14T01:51:07.274Z,1003
2023-05-14T01:52:08.469Z,1003
2023-05-14T01:53:09.626Z,1003
2023-05-14T01:54:10.816Z,1003
2023-05-14T01:55:11.960Z,1003
2023-05-14T01:56:13.156Z,1003
2023-05-14T01:57:14.321Z,1003
2023-05-14T01:58:15.481Z,1003
2023-05-14T01:59:16.655Z,1003
2023-05-14T02:00:17.814Z,1003
2023-05-14T02:01:19.014Z,1003
2023-05-14T02:02:20.208Z,1003
2023-05-14T02:03:21.376Z,1003
2023-05-14T02:04:22.610Z,1003
2023-05-14T02:05:23.834Z,1003
2023-05-14T02:06:24.988Z,1003
2023-05-14T02:07:26.157Z,1003
2023-05-14T02:08:27.324Z,1003
2023-05-14T02:09:28.580Z,1003
2023-05-14T02:10:29.717Z,1003
2023-05-14T02:11:30.879Z,1003
2023-05-14T02:12:32.043Z,1003
2023-05-14T02:13:33.218Z,1003
2023-05-14T02:14:34.386Z,1003
2023-05-14T02:15:35.611Z,1003
2023-05-14T02:16:36.870Z,1003
2023-05-14T02:17:38.207Z,1003
2023-05-14T02:18:39.489Z,1003
2023-05-14T02:19:40.664Z,1003
2023-05-14T02:20:41.815Z,1003
2023-05-14T02:21:42.979Z,1003
2023-05-14T02:22:44.149Z,1003
2023-05-14T02:23:45.315Z,1003
2023-05-14T02:24:46.511Z,1003
2023-05-14T02:25:47.647Z,1003
2023-05-14T02:26:48.824Z,1003
2023-05-14T02:27:49.988Z,1003
2023-05-14T02:28:51.253Z,1003
2023-05-14T02:29:52.428Z,1003
2023-05-14T02:30:53.591Z,1003
2023-05-14T02:31:54.954Z,1003
2023-05-14T02:32:56.300Z,1003
2023-05-14T02:33:57.526Z,1003
2023-05-14T02:34:58.683Z,1003
2023-05-14T02:35:59.856Z,1003
2023-05-14T02:37:01.020Z,1002.9
2023-05-14T02:38:02.210Z,1002.9
2023-05-14T02:39:03.357Z,1002.9
2023-05-14T02:40:04.633Z,1002.9
2023-05-14T02:41:05.769Z,1002.9
2023-05-14T02:42:06.945Z,1002.9
2023-05-14T02:43:08.121Z,1002.9
2023-05-14T02:44:09.270Z,1002.9
2023-05-14T02:45:10.441Z,1002.9
2023-05-14T02:46:11.601Z,1002.9
2023-05-14T02:47:12.856Z,1002.9
2023-05-14T02:48:14.166Z,1002.9
2023-05-14T02:49:15.351Z,1002.9
2023-05-14T02:50:16.518Z,1002.9
2023-05-14T02:51:17.682Z,1002.9
2023-05-14T02:52:18.851Z,1002.9
2023-05-14T02:53:20.022Z,1002.8
2023-05-14T02:54:21.191Z,1002.8
2023-05-14T02:55:22.384Z,1002.8
2023-05-14T02:56:23.517Z,1002.8
2023-05-14T02:57:24.690Z,1002.8
2023-05-14T02:58:28.911Z,1002.8
2023-05-14T02:59:30.449Z,1002.8
2023-05-14T03:00:32.912Z,1002.8
2023-05-14T03:01:35.606Z,1002.8
2023-05-14T03:02:38.225Z,1002.8
2023-05-14T03:03:40.949Z,1002.8
2023-05-14T03:04:43.032Z,1002.8
2023-05-14T03:05:44.203Z,1002.8
2023-05-14T03:06:45.366Z,1002.8
2023-05-14T03:07:46.534Z,1002.8
2023-05-14T03:08:47.705Z,1002.8
2023-05-14T03:09:48.868Z,1002.8
2023-05-14T03:10:50.062Z,1002.8
2023-05-14T03:11:51.216Z,1002.8
2023-05-14T03:12:52.376Z,1002.8
2023-05-14T03:13:53.533Z,1002.8
2023-05-14T03:14:54.766Z,1002.8
2023-05-14T03:15:55.934Z,1002.8
2023-05-14T03:16:57.163Z,1002.8
2023-05-14T03:17:58.580Z,1002.8
2023-05-14T03:18:59.900Z,1002.8
2023-05-14T03:20:01.081Z,1002.8
2023-05-14T03:21:02.255Z,1002.8
2023-05-14T03:22:03.415Z,1002.8
2023-05-14T03:23:04.585Z,1002.8
2023-05-14T03:24:05.776Z,1002.8
2023-05-14T03:25:11.932Z,1002.8
2023-05-14T03:26:23.068Z,1002.8
2023-05-14T03:27:29.569Z,1002.8
2023-05-14T03:28:33.712Z,1002.7
2023-05-14T03:29:37.828Z,1002.7
2023-05-14T03:30:39.081Z,1002.8
2023-05-14T03:32:23.736Z,1002.8
2023-05-14T03:33:30.690Z,1002.8
2023-05-14T03:34:34.543Z,1002.8
2023-05-14T03:35:49.279Z,1002.8
2023-05-14T03:36:53.097Z,1002.8
2023-05-14T03:37:58.950Z,1002.8
2023-05-14T03:39:00.153Z,1002.8
2023-05-14T03:40:07.252Z,1002.8
2023-05-14T03:41:08.470Z,1002.8
2023-05-14T03:42:09.676Z,1002.8
2023-05-14T03:43:17.806Z,1002.8
2023-05-14T03:44:26.627Z,1002.8
2023-05-14T03:45:40.437Z,1002.8
2023-05-14T03:46:41.577Z,1002.7
2023-05-14T03:47:42.883Z,1002.7
2023-05-14T03:48:44.181Z,1002.7
2023-05-14T03:49:48.535Z,1002.7
2023-05-14T03:50:54.592Z,1002.7
2023-05-14T03:51:55.746Z,1002.7
2023-05-14T03:53:06.947Z,1002.7
2023-05-14T03:54:08.146Z,1002.7
2023-05-14T03:55:14.204Z,1002.7
2023-05-14T03:56:27.258Z,1002.7
2023-05-14T03:57:36.000Z,1002.7
2023-05-14T03:58:50.936Z,1002.7
2023-05-14T03:59:54.778Z,1002.7
2023-05-14T04:01:56.312Z,1002.7
2023-05-14T04:03:05.233Z,1002.7
2023-05-14T04:04:54.434Z,1002.7
2023-05-14T04:05:58.451Z,1002.7
2023-05-14T04:07:02.717Z,1002.7
2023-05-14T04:08:06.855Z,1002.7
2023-05-14T04:09:13.746Z,1002.7
2023-05-14T04:10:17.563Z,1002.7
2023-05-14T04:11:27.507Z,1002.7
2023-05-14T04:12:32.075Z,1002.7
2023-05-14T04:13:33.255Z,1002.7
2023-05-14T04:14:43.418Z,1002.7
2023-05-14T04:15:50.487Z,1002.7
2023-05-14T04:16:53.945Z,1002.7
2023-05-14T04:17:58.092Z,1002.7
2023-05-14T04:19:01.544Z,1002.7
2023-05-14T04:20:15.281Z,1002.7
2023-05-14T04:21:16.416Z,1002.8
2023-05-14T04:22:41.198Z,1002.8
2023-05-14T04:23:42.422Z,1002.8
2023-05-14T04:24:43.548Z,1002.8
2023-05-14T04:25:44.730Z,1002.8
2023-05-14T04:26:48.992Z,1002.8
2023-05-14T04:27:59.101Z,1002.8
2023-05-14T04:29:05.712Z,1002.8
2023-05-14T04:30:09.906Z,1002.8
2023-05-14T04:31:16.955Z,1002.8
2023-05-14T04:32:41.318Z,1002.8
2023-05-14T04:33:52.149Z,1002.7
2023-05-14T04:34:56.246Z,1002.7
2023-05-14T04:36:07.965Z,1002.7
2023-05-14T04:38:22.943Z,1002.7
2023-05-14T04:39:24.128Z,1002.7
2023-05-14T04:40:33.417Z,1002.7
2023-05-14T04:41:44.988Z,1002.7
2023-05-14T04:42:46.179Z,1002.7
2023-05-14T04:43:47.407Z,1002.7
2023-05-14T04:44:50.749Z,1002.7
2023-05-14T04:45:59.607Z,1002.7
2023-05-14T04:47:36.409Z,1002.7
2023-05-14T04:48:40.380Z,1002.7
2023-05-14T04:49:41.586Z,1002.7
2023-05-14T04:50:51.610Z,1002.7
2023-05-14T04:51:58.525Z,1002.7
2023-05-14T04:52:59.705Z,1002.7
2023-05-14T04:54:05.251Z,1002.7
2023-05-14T04:55:09.440Z,1002.7
2023-05-14T04:56:13.528Z,1002.7
2023-05-14T04:57:22.220Z,1002.7
2023-05-14T04:58:26.022Z,1002.7
2023-05-14T04:59:35.412Z,1002.7
2023-05-14T05:00:39.396Z,1002.7
2023-05-14T05:02:57.224Z,1002.7
2023-05-14T05:04:09.762Z,1002.7
2023-05-14T05:05:11.121Z,1002.7
2023-05-14T05:06:12.270Z,1002.7
2023-05-14T05:07:13.450Z,1002.7
2023-05-14T05:08:17.491Z,1002.7
2023-05-14T05:09:24.279Z,1002.7
2023-05-14T05:10:28.357Z,1002.7
2023-05-14T05:11:39.177Z,1002.7
2023-05-14T05:12:43.376Z,1002.7
2023-05-14T05:13:44.543Z,1002.7
2023-05-14T05:14:50.599Z,1002.7
2023-05-14T05:15:56.737Z,1002.7
2023-05-14T05:17:00.878Z,1002.7
2023-05-14T05:18:50.577Z,1002.7
2023-05-14T05:19:51.740Z,1002.7
2023-05-14T05:20:52.969Z,1002.7
2023-05-14T05:21:56.763Z,1002.7
2023-05-14T05:22:57.914Z,1002.7
2023-05-14T05:24:04.408Z,1002.7
2023-05-14T05:25:08.641Z,1002.7
2023-05-14T05:26:13.890Z,1002.7
2023-05-14T05:27:36.089Z,1002.7
2023-05-14T05:28:44.560Z,1002.7
2023-05-14T05:29:48.658Z,1002.7
2023-05-14T05:30:53.107Z,1002.7
2023-05-14T05:32:17.542Z,1002.7
2023-05-14T05:33:21.184Z,1002.6
2023-05-14T05:34:22.429Z,1002.7
2023-05-14T05:35:26.128Z,1002.7
2023-05-14T05:36:30.010Z,1002.6
2023-05-14T05:37:38.425Z,1002.6
2023-05-14T05:38:47.051Z,1002.6
2023-05-14T05:39:48.179Z,1002.6
2023-05-14T05:40:55.441Z,1002.6
2023-05-14T05:41:56.703Z,1002.6
2023-05-14T05:43:00.545Z,1002.6
2023-05-14T05:44:07.552Z,1002.6
2023-05-14T05:45:26.846Z,1002.6
2023-05-14T05:46:38.412Z,1002.6
2023-05-14T05:48:01.200Z,1002.6
2023-05-14T05:49:13.726Z,1002.6
2023-05-14T05:50:15.103Z,1002.6
2023-05-14T05:51:20.817Z,1002.6
2023-05-14T05:52:32.539Z,1002.6
2023-05-14T05:53:44.074Z,1002.6
2023-05-14T05:54:53.362Z,1002.6
2023-05-14T05:55:59.737Z,1002.6
2023-05-14T05:57:08.660Z,1002.6
2023-05-14T05:58:12.873Z,1002.6
2023-05-14T05:59:14.073Z,1002.6
2023-05-14T06:00:17.946Z,1002.6
2023-05-14T06:01:22.209Z,1002.6
2023-05-14T06:02:23.512Z,1002.6
2023-05-14T06:03:27.626Z,1002.6
2023-05-14T06:04:52.028Z,1002.6
2023-05-14T06:06:01.877Z,1002.6
2023-05-14T06:07:05.827Z,1002.6
2023-05-14T06:08:09.701Z,1002.6
2023-05-14T06:09:17.984Z,1002.7
2023-05-14T06:10:21.923Z,1002.7
2023-05-14T06:11:26.593Z,1002.7
2023-05-14T06:12:30.477Z,1002.7
2023-05-14T06:13:39.825Z,1002.7
2023-05-14T06:14:45.894Z,1002.7
2023-05-14T06:16:10.466Z,1002.6
2023-05-14T06:17:17.074Z,1002.6
2023-05-14T06:18:21.171Z,1002.6
2023-05-14T06:19:34.718Z,1002.6
2023-05-14T06:20:36.034Z,1002.6
2023-05-14T06:21:43.102Z,1002.7
2023-05-14T06:22:44.376Z,1002.7
2023-05-14T06:23:45.517Z,1002.7
2023-05-14T06:24:51.686Z,1002.7
2023-05-14T06:25:52.895Z,1002.7
2023-05-14T06:27:10.925Z,1002.7
2023-05-14T06:28:15.222Z,1002.7
2023-05-14T06:29:22.373Z,1002.6
2023-05-14T06:30:31.195Z,1002.6
2023-05-14T06:31:32.424Z,1002.7
2023-05-14T06:32:33.944Z,1002.6
2023-05-14T06:33:48.227Z,1002.6
2023-05-14T06:34:52.185Z,1002.6
2023-05-14T06:35:53.349Z,1002.6
2023-05-14T06:36:58.135Z,1002.6
2023-05-14T06:38:16.792Z,1002.6
2023-05-14T06:39:20.764Z,1002.6
2023-05-14T06:40:24.869Z,1002.6
2023-05-14T06:41:34.725Z,1002.6
2023-05-14T06:42:48.290Z,1002.5
2023-05-14T06:43:52.107Z,1002.5
2023-05-14T06:44:53.285Z,1002.5
2023-05-14T06:45:54.504Z,1002.5
2023-05-14T06:47:00.877Z,1002.5
2023-05-14T06:48:07.220Z,1002.5
2023-05-14T06:49:17.689Z,1002.5
2023-05-14T06:50:21.969Z,1002.5
2023-05-14T06:52:32.270Z,1002.5
2023-05-14T06:53:36.533Z,1002.5
2023-05-14T06:55:00.910Z,1002.5
2023-05-14T06:56:13.610Z,1002.5
2023-05-14T06:57:17.451Z,1002.5
2023-05-14T06:58:18.631Z,1002.4
2023-05-14T06:59:32.611Z,1002.5
2023-05-14T07:00:45.172Z,1002.5
2023-05-14T07:01:55.388Z,1002.4
2023-05-14T07:03:04.134Z,1002.4
2023-05-14T07:05:35.353Z,1002.4
2023-05-14T07:06:41.291Z,1002.4
2023-05-14T07:07:42.460Z,1002.4
2023-05-14T07:08:43.629Z,1002.4
2023-05-14T07:09:44.825Z,1002.4
2023-05-14T07:10:48.756Z,1002.4
2023-05-14T07:11:52.713Z,1002.4
2023-05-14T07:13:01.108Z,1002.4
2023-05-14T07:14:10.980Z,1002.3
2023-05-14T07:15:21.036Z,1002.3
2023-05-14T07:16:24.904Z,1002.3
2023-05-14T07:17:31.717Z,1002.3
2023-05-14T07:18:33.072Z,1002.3
2023-05-14T07:19:39.153Z,1002.3
2023-05-14T07:21:51.608Z,1002.3
2023-05-14T07:24:09.576Z,1002.2
2023-05-14T07:25:21.832Z,1002.2
2023-05-14T07:27:31.767Z,1002.2
2023-05-14T07:28:36.074Z,1002.2
2023-05-14T07:29:37.263Z,1002.1
2023-05-14T07:30:38.501Z,1002.1
2023-05-14T07:31:42.426Z,1002.1
2023-05-14T07:32:46.153Z,1002.1
2023-05-14T07:33:47.359Z,1002
2023-05-14T07:34:48.531Z,1002
2023-05-14T07:35:52.754Z,1002
2023-05-14T07:37:17.767Z,1002
2023-05-14T07:38:24.439Z,1002
2023-05-14T07:39:48.627Z,1002
2023-05-14T07:40:49.817Z,1002
2023-05-14T07:41:54.162Z,1002
2023-05-14T07:43:00.202Z,1002
2023-05-14T07:44:03.915Z,1002
2023-05-14T07:45:13.286Z,1002
2023-05-14T07:46:20.190Z,1002
2023-05-14T07:47:26.350Z,1002
2023-05-14T07:48:33.498Z,1002
2023-05-14T07:49:37.618Z,1002
2023-05-14T07:50:43.629Z,1002
2023-05-14T07:51:47.554Z,1002
2023-05-14T07:52:54.422Z,1002
2023-05-14T07:53:58.361Z,1001.9
2023-05-14T07:56:17.568Z,1001.9
2023-05-14T07:57:23.553Z,1001.9
2023-05-14T07:58:53.644Z,1001.9
2023-05-14T07:59:54.902Z,1001.9
2023-05-14T08:01:08.536Z,1001.9
2023-05-14T08:02:14.604Z,1001.9
2023-05-14T08:03:18.848Z,1001.9
2023-05-14T08:04:29.011Z,1001.9
2023-05-14T08:07:09.613Z,1001.9
2023-05-14T08:08:16.318Z,1001.9
2023-05-14T08:09:20.514Z,1001.9
2023-05-14T08:10:34.984Z,1001.9
2023-05-14T08:50:11.360Z,1001.6
2023-05-14T08:51:17.650Z,1001.5
2023-05-14T08:52:22.969Z,1001.6
2023-05-14T08:53:24.207Z,1001.5
2023-05-14T08:54:25.355Z,1001.5
2023-05-14T08:55:26.513Z,1001.5
2023-05-14T08:56:27.677Z,1001.5
2023-05-14T08:57:28.912Z,1001.5
2023-05-14T08:58:30.036Z,1001.5
2023-05-14T08:59:31.205Z,1001.5
2023-05-14T09:00:32.375Z,1001.5
2023-05-14T09:01:33.629Z,1001.5
2023-05-14T09:02:35.089Z,1001.5
2023-05-14T09:03:36.389Z,1001.5
2023-05-14T09:04:37.581Z,1001.5
2023-05-14T09:05:38.771Z,1001.5
2023-05-14T09:06:39.905Z,1001.5
2023-05-14T09:07:41.077Z,1001.5
2023-05-14T09:08:42.242Z,1001.5
2023-05-14T09:09:43.404Z,1001.4
2023-05-14T09:10:44.577Z,1001.4
2023-05-14T09:11:45.745Z,1001.4
2023-05-14T09:12:46.906Z,1001.4
2023-05-14T09:13:48.075Z,1001.4
2023-05-14T09:14:49.242Z,1001.4
2023-05-14T09:15:50.708Z,1001.4
2023-05-14T09:16:52.166Z,1001.4
2023-05-14T09:17:53.707Z,1001.4
2023-05-14T09:18:54.970Z,1001.4
2023-05-14T09:19:56.124Z,1001.4
2023-05-14T09:20:57.316Z,1001.3
2023-05-14T09:21:58.460Z,1001.3
2023-05-14T09:22:59.626Z,1001.3
2023-05-14T09:24:00.807Z,1001.3
2023-05-14T09:25:01.975Z,1001.3
2023-05-14T09:26:03.131Z,1001.3
2023-05-14T09:27:04.290Z,1001.3
2023-05-14T09:28:05.460Z,1001.3
2023-05-14T09:29:06.622Z,1001.3
2023-05-14T09:30:07.804Z,1001.3
2023-05-14T09:31:08.971Z,1001.3
2023-05-14T09:32:10.135Z,1001.3
2023-05-14T09:33:11.339Z,1001.2
2023-05-14T09:34:12.511Z,1001.2
2023-05-14T09:35:13.671Z,1001.2
2023-05-14T09:36:14.860Z,1001.2
2023-05-14T09:37:16.000Z,1001.2
2023-05-14T09:38:17.191Z,1001.1
2023-05-14T09:39:18.334Z,1001.2
2023-05-14T09:40:19.517Z,1001.2
2023-05-14T09:41:20.669Z,1001.1
2023-05-14T09:42:21.834Z,1001.2
2023-05-14T09:43:23.004Z,1001.1
2023-05-14T09:44:24.167Z,1001.1
2023-05-14T09:45:25.338Z,1001.1
2023-05-14T09:46:26.514Z,1001.1
2023-05-14T09:47:27.834Z,1001
2023-05-14T09:48:29.186Z,1001
2023-05-14T09:49:30.374Z,1001
2023-05-14T09:50:31.546Z,1001
2023-05-14T09:51:32.736Z,1001
2023-05-14T09:52:33.875Z,1001
2023-05-14T09:53:35.038Z,1001
2023-05-14T09:54:36.253Z,1000.9
2023-05-14T09:55:37.378Z,1000.9
2023-05-14T09:56:38.542Z,1000.9
2023-05-14T09:57:39.717Z,1000.9
2023-05-14T09:58:40.889Z,1000.9
2023-05-14T09:59:42.056Z,1000.9
2023-05-14T10:00:43.221Z,1000.8
2023-05-14T10:01:44.587Z,1000.8
2023-05-14T10:02:46.038Z,1000.8
2023-05-14T10:03:47.202Z,1000.8
2023-05-14T10:04:48.438Z,1000.8
2023-05-14T10:05:49.708Z,1000.8
2023-05-14T10:06:50.899Z,1000.8
2023-05-14T10:07:52.042Z,1000.8
2023-05-14T10:08:53.224Z,1000.8
2023-05-14T10:09:54.380Z,1000.8
2023-05-14T10:10:56.301Z,1000.7
2023-05-14T10:11:57.468Z,1000.7
2023-05-14T10:12:58.648Z,1000.7
2023-05-14T10:13:59.817Z,1000.7
2023-05-14T10:15:00.982Z,1000.7
2023-05-14T10:16:02.148Z,1000.7
2023-05-14T10:17:03.429Z,1000.6
2023-05-14T10:18:04.638Z,1000.6
2023-05-14T10:19:05.933Z,1000.6
2023-05-14T10:20:07.155Z,1000.6
2023-05-14T10:21:08.335Z,1000.6
2023-05-14T10:22:09.521Z,1000.6
2023-05-14T10:23:10.657Z,1000.6
2023-05-14T10:24:11.822Z,1000.6
2023-05-14T10:25:13.009Z,1000.5
2023-05-14T10:26:14.171Z,1000.5
2023-05-14T10:27:15.347Z,1000.5
2023-05-14T10:28:16.502Z,1000.5
2023-05-14T10:29:17.670Z,1000.5
2023-05-14T10:30:18.915Z,1000.6
2023-05-14T10:31:20.217Z,1000.6
2023-05-14T10:32:21.571Z,1000.5
2023-05-14T10:33:22.739Z,1000.5
2023-05-14T10:34:23.908Z,1000.5
2023-05-14T10:35:25.067Z,1000.5
2023-05-14T10:36:26.232Z,1000.5
2023-05-14T10:37:27.547Z,1000.5
2023-05-14T10:38:28.809Z,1000.4
2023-05-14T10:39:29.939Z,1000.4
2023-05-14T10:40:31.105Z,1000.4
2023-05-14T10:41:35.205Z,1000.4
2023-05-14T10:42:36.630Z,1000.4
2023-05-14T10:43:37.757Z,1000.4
2023-05-14T10:44:38.926Z,1000.4
2023-05-14T10:45:40.270Z,1000.4
2023-05-14T10:46:41.484Z,1000.4
2023-05-14T10:47:42.710Z,1000.4
2023-05-14T10:48:43.943Z,1000.4
2023-05-14T10:49:45.569Z,1000.4
2023-05-14T10:50:46.770Z,1000.4
2023-05-14T10:51:47.903Z,1000.4
2023-05-14T10:52:49.141Z,1000.3
2023-05-14T10:53:50.323Z,1000.3
2023-05-14T10:54:51.570Z,1000.3
2023-05-14T10:55:52.737Z,1000.3
2023-05-14T10:56:53.936Z,1000.2
2023-05-14T10:57:55.091Z,1000.3
2023-05-14T10:58:56.241Z,1000.3
2023-05-14T10:59:57.410Z,1000.2
2023-05-14T11:00:58.653Z,1000.2
2023-05-14T11:01:59.858Z,1000.2
2023-05-14T11:03:01.389Z,1000.1
2023-05-14T11:04:05.491Z,1000.1
2023-05-14T11:05:06.662Z,1000.1
2023-05-14T11:06:07.832Z,1000.2
2023-05-14T11:07:08.995Z,1000.1
2023-05-14T11:08:10.225Z,1000.1
2023-05-14T11:09:11.356Z,1000.1
2023-05-14T11:10:12.567Z,1000
2023-05-14T11:11:13.828Z,1000
2023-05-14T11:12:14.976Z,1000
2023-05-14T11:13:18.735Z,1000
2023-05-14T11:14:19.871Z,1000
2023-05-14T11:15:21.040Z,999.9
2023-05-14T11:16:24.405Z,999.9
2023-05-14T11:17:25.678Z,999.9
2023-05-14T11:18:26.854Z,999.9
2023-05-14T11:19:28.019Z,999.9
2023-05-14T11:20:29.197Z,999.9
2023-05-14T11:21:30.458Z,999.9
2023-05-14T11:22:31.653Z,999.9
2023-05-14T11:23:32.849Z,999.9
2023-05-14T11:24:33.987Z,999.9
2023-05-14T11:25:35.156Z,999.9
2023-05-14T11:26:36.322Z,999.9
2023-05-14T11:27:37.513Z,999.9
2023-05-14T11:28:38.676Z,999.8
2023-05-14T11:29:39.834Z,999.8
2023-05-14T11:30:41.002Z,999.8
2023-05-14T11:31:42.335Z,999.8
2023-05-14T11:32:43.580Z,999.8
2023-05-14T11:33:44.749Z,999.7
2023-05-14T11:34:45.916Z,999.7
2023-05-14T11:35:47.092Z,999.7
2023-05-14T11:36:48.247Z,999.7
2023-05-14T11:37:49.436Z,999.6
2023-05-14T11:38:50.603Z,999.6
2023-05-14T11:39:51.761Z,999.6
2023-05-14T11:40:52.945Z,999.6
2023-05-14T11:41:54.116Z,999.6
2023-05-14T11:42:55.273Z,999.6
2023-05-14T11:43:56.794Z,999.6
2023-05-14T11:44:58.008Z,999.6
2023-05-14T11:45:59.263Z,999.5
2023-05-14T11:47:00.519Z,999.5
2023-05-14T11:48:01.831Z,999.5
2023-05-14T11:49:03.037Z,999.5
2023-05-14T11:50:04.204Z,999.5
2023-05-14T11:51:05.363Z,999.5
2023-05-14T11:52:06.559Z,999.5
2023-05-14T11:53:07.733Z,999.4
2023-05-14T11:54:08.882Z,999.4
2023-05-14T11:55:10.037Z,999.4
2023-05-14T11:56:11.201Z,999.4
2023-05-14T11:57:12.356Z,999.4
2023-05-14T11:58:13.516Z,999.3
2023-05-14T11:59:14.688Z,999.3
2023-05-14T12:00:15.873Z,999.3
2023-05-14T12:01:17.329Z,999.4
2023-05-14T12:02:18.570Z,999.4
2023-05-14T12:03:20.204Z,999.3
2023-05-14T12:04:21.762Z,999.3
2023-05-14T12:05:23.006Z,999.3
2023-05-14T12:06:24.163Z,999.3
2023-05-14T12:07:25.319Z,999.2
2023-05-14T12:08:26.483Z,999.2
2023-05-14T12:09:27.679Z,999.2
2023-05-14T12:10:28.811Z,999.2
2023-05-14T12:11:29.982Z,999.2
2023-05-14T12:12:31.188Z,999.2
2023-05-14T12:13:32.308Z,999.2
2023-05-14T12:14:33.478Z,999.1
2023-05-14T12:15:34.644Z,999.1
2023-05-14T12:16:38.703Z,999.1
2023-05-14T12:17:39.911Z,999.1
2023-05-14T12:18:41.250Z,999.1
2023-05-14T12:20:23.744Z,999.1
2023-05-14T12:21:42.674Z,999.1
2023-05-14T12:22:43.844Z,999
2023-05-14T12:23:45.006Z,999
2023-05-14T12:24:46.213Z,999
2023-05-14T12:25:47.348Z,999
2023-05-14T12:26:48.523Z,999
2023-05-14T12:27:49.678Z,999
2023-05-14T12:28:50.848Z,999.1
2023-05-14T12:29:52.016Z,999
2023-05-14T12:30:53.182Z,999
2023-05-14T12:31:54.528Z,998.9
2023-05-14T12:32:55.793Z,998.9
2023-05-14T12:33:57.009Z,998.9
2023-05-14T12:34:58.175Z,998.9
2023-05-14T12:36:20.174Z,998.9
2023-05-14T12:37:23.252Z,998.8
2023-05-14T12:38:24.428Z,998.8
2023-05-14T12:39:25.582Z,998.8
2023-05-14T12:40:27.055Z,998.8
2023-05-14T12:41:28.215Z,998.8
2023-05-14T12:42:29.388Z,998.9
2023-05-14T12:43:30.577Z,998.9
2023-05-14T12:44:31.761Z,998.8
2023-05-14T12:45:32.961Z,998.8
2023-05-14T12:46:34.158Z,998.8
2023-05-14T12:47:35.725Z,998.8
2023-05-14T12:48:37.281Z,998.8
2023-05-14T12:49:38.452Z,998.8
2023-05-14T12:50:39.621Z,998.9
2023-05-14T12:51:40.795Z,998.8
2023-05-14T12:52:41.995Z,998.8
2023-05-14T12:53:43.159Z,998.8
2023-05-14T12:54:44.332Z,998.8
2023-05-14T12:55:45.508Z,998.8
2023-05-14T12:56:46.678Z,998.8
2023-05-14T12:57:47.831Z,998.8
2023-05-14T12:58:49.195Z,998.7
2023-05-14T12:59:50.343Z,998.7
2023-05-14T13:00:51.620Z,998.7
2023-05-14T13:01:52.872Z,998.8
2023-05-14T13:02:54.053Z,998.7
2023-05-14T13:03:55.270Z,998.7
2023-05-14T13:04:56.511Z,998.7
2023-05-14T13:05:57.675Z,998.7
2023-05-14T13:06:58.839Z,998.7
2023-05-14T13:08:00.008Z,998.7
2023-05-14T13:09:01.178Z,998.7
2023-05-14T13:10:02.343Z,998.7
2023-05-14T13:11:03.535Z,998.6
2023-05-14T13:12:04.689Z,998.6
2023-05-14T13:13:05.846Z,998.6
2023-05-14T13:14:07.187Z,998.6
2023-05-14T13:15:08.357Z,998.6
2023-05-14T13:16:09.616Z,998.6
2023-05-14T13:17:10.810Z,998.6
2023-05-14T13:18:11.985Z,998.6
2023-05-14T13:19:13.237Z,998.6
2023-05-14T13:20:14.757Z,998.6
2023-05-14T13:21:15.926Z,998.6
2023-05-14T13:22:17.099Z,998.6
2023-05-14T13:23:18.253Z,998.6
2023-05-14T13:24:19.425Z,998.5
2023-05-14T13:25:20.590Z,998.6
2023-05-14T13:26:21.789Z,998.6
2023-05-14T13:27:22.934Z,998.5
2023-05-14T13:28:24.093Z,998.6
2023-05-14T13:29:25.255Z,998.5
2023-05-14T13:30:26.425Z,998.5
2023-05-14T13:31:27.746Z,998.5
2023-05-14T13:32:29.046Z,998.5
2023-05-14T13:33:30.237Z,998.5
2023-05-14T13:34:31.401Z,998.5
2023-05-14T13:35:32.589Z,998.5
2023-05-14T13:36:33.753Z,998.4
2023-05-14T13:37:34.918Z,998.4
2023-05-14T13:38:36.090Z,998.4
2023-05-14T13:39:37.251Z,998.4
2023-05-14T13:40:38.461Z,998.4
2023-05-14T13:41:39.641Z,998.4
2023-05-14T13:42:40.783Z,998.4
2023-05-14T13:43:41.942Z,998.4
2023-05-14T13:44:43.109Z,998.4
2023-05-14T13:45:44.271Z,998.4
2023-05-14T13:46:45.534Z,998.4
2023-05-14T13:47:46.978Z,998.4
2023-05-14T13:48:50.317Z,998.4
2023-05-14T13:49:51.484Z,998.4
2023-05-14T13:50:52.674Z,998.4
2023-05-14T13:51:53.833Z,998.3
2023-05-14T13:52:54.990Z,998.4
2023-05-14T13:53:56.751Z,998.3
2023-05-14T13:54:58.010Z,998.4
2023-05-14T13:55:59.185Z,998.4
2023-05-14T13:57:00.387Z,998.3
2023-05-14T13:58:01.524Z,998.3
2023-05-14T13:59:02.694Z,998.3
2023-05-14T14:00:03.854Z,998.3
2023-05-14T14:01:05.115Z,998.3
2023-05-14T14:02:06.399Z,998.2
2023-05-14T14:03:07.753Z,998.3
2023-05-14T14:04:08.942Z,998.2
2023-05-14T14:05:10.170Z,998.2
2023-05-14T14:06:11.335Z,998.2
2023-05-14T14:07:12.506Z,998.2
2023-05-14T14:08:23.692Z,998.2
2023-05-14T14:09:25.621Z,998.1
2023-05-14T14:10:26.802Z,998.1
2023-05-14T14:11:27.955Z,998.1
2023-05-14T14:12:29.243Z,998.1
2023-05-14T14:13:30.513Z,998.1
2023-05-14T14:14:31.679Z,998.1